Time;durP1;ratioP1;P1;durP2;ratioP2;P2;SDS_P1;SDS_P2;PMS_P1;PMS_P2;Temp;Humidity;BMP_temperature;BMP_pressure;BME280_temperature;BME280_humidity;BME280_pressure;Samples;Min_cycle;Max_cycle;Signal;HPM_P1;HPM_P2
2022/11/12 00:01:05;;;;;;;24.30;14.25;;;4.70;99.90;;;;;;5063855;28;20409;-69
2022/11/12 00:03:30;;;;;;;29.75;17.63;;;4.60;99.90;;;;;;5061685;28;20025;-69
2022/11/12 00:05:56;;;;;;;28.85;16.77;;;4.60;99.90;;;;;;5064606;28;20040;-71
2022/11/12 00:08:22;;;;;;;28.27;15.93;;;4.60;99.90;;;;;;5061156;28;20043;-70
2022/11/12 00:10:47;;;;;;;29.98;17.58;;;4.50;99.90;;;;;;5062188;28;20036;-70
2022/11/12 00:13:14;;;;;;;30.02;17.60;;;4.50;99.90;;;;;;5063643;28;20047;-69
2022/11/12 00:15:39;;;;;;;30.13;17.13;;;4.50;99.90;;;;;;5060438;28;20506;-69
2022/11/12 00:18:06;;;;;;;33.97;18.27;;;4.50;99.90;;;;;;5061724;28;20108;-69
2022/11/12 00:20:32;;;;;;;32.92;19.27;;;4.50;99.90;;;;;;5061152;28;20055;-69
2022/11/12 00:22:57;;;;;;;31.55;18.92;;;4.50;99.90;;;;;;5061891;28;20111;-70
2022/11/12 00:25:23;;;;;;;33.47;19.33;;;4.40;99.90;;;;;;5062835;28;20037;-71
2022/11/12 00:27:49;;;;;;;28.63;18.30;;;4.40;99.90;;;;;;5063375;28;20033;-69
2022/11/12 00:30:15;;;;;;;31.00;17.10;;;4.30;99.90;;;;;;5069731;28;20044;-69
2022/11/12 00:32:40;;;;;;;33.97;18.08;;;4.40;99.90;;;;;;5069303;28;20028;-69
2022/11/12 00:35:07;;;;;;;27.48;17.48;;;4.40;99.90;;;;;;5069840;28;20079;-69
2022/11/12 00:37:32;;;;;;;26.38;16.27;;;4.40;99.90;;;;;;5069713;28;20036;-69
2022/11/12 00:39:58;;;;;;;32.55;18.55;;;4.40;99.90;;;;;;5068594;28;20028;-69
2022/11/12 00:42:24;;;;;;;28.92;16.95;;;4.40;99.90;;;;;;5069890;28;20028;-70
2022/11/12 00:44:49;;;;;;;30.98;17.70;;;4.40;99.90;;;;;;5069538;28;20082;-69
2022/11/12 00:47:16;;;;;;;28.63;17.02;;;4.40;99.90;;;;;;5070191;28;20037;-69
2022/11/12 00:49:41;;;;;;;23.50;15.43;;;4.30;99.90;;;;;;5068522;28;20529;-69
2022/11/12 00:52:07;;;;;;;26.33;16.27;;;4.30;99.90;;;;;;5069333;28;20062;-69
2022/11/12 00:54:32;;;;;;;29.95;16.73;;;4.20;99.90;;;;;;5064948;28;20033;-70
2022/11/12 00:56:58;;;;;;;26.40;15.98;;;4.20;99.90;;;;;;5064828;28;20392;-69
2022/11/12 00:59:24;;;;;;;25.45;16.17;;;4.20;99.90;;;;;;5071948;28;20029;-71
2022/11/12 01:01:49;;;;;;;26.85;15.73;;;4.20;99.90;;;;;;5069210;28;20036;-69
2022/11/12 01:04:15;;;;;;;22.63;14.82;;;4.10;99.90;;;;;;5069515;28;20066;-69
2022/11/12 01:06:41;;;;;;;28.65;17.92;;;4.10;99.90;;;;;;5069386;28;20056;-69
2022/11/12 01:09:07;;;;;;;30.58;17.08;;;4.00;99.90;;;;;;5071167;28;20380;-69
2022/11/12 01:11:33;;;;;;;23.70;15.48;;;4.00;99.90;;;;;;5072939;28;20469;-69
2022/11/12 01:14:02;;;;;;;25.05;15.30;;;3.90;99.90;;;;;;5068240;28;20064;-69
2022/11/12 01:16:33;;;;;;;28.08;17.08;;;3.90;99.90;;;;;;5067182;28;20112;-70
2022/11/12 01:19:00;;;;;;;30.23;16.85;;;3.90;99.90;;;;;;5073878;28;20040;-68
2022/11/12 01:21:28;;;;;;;27.67;16.52;;;3.90;99.90;;;;;;5072873;28;20032;-71
2022/11/12 01:23:55;;;;;;;27.10;14.95;;;4.00;99.90;;;;;;5073804;28;20380;-68
2022/11/12 01:26:22;;;;;;;23.55;15.40;;;3.90;99.90;;;;;;5073308;28;20470;-69
2022/11/12 01:28:47;;;;;;;25.77;16.50;;;3.90;99.90;;;;;;5073334;28;20111;-69
2022/11/12 01:31:19;;;;;;;35.60;19.80;;;3.90;99.90;;;;;;5066623;28;20552;-69
2022/11/12 01:33:47;;;;;;;34.58;18.83;;;3.90;99.90;;;;;;5073193;28;20052;-69
2022/11/12 01:36:15;;;;;;;34.15;18.95;;;4.00;99.90;;;;;;5073217;28;20046;-69
2022/11/12 01:38:42;;;;;;;36.15;20.88;;;4.10;99.90;;;;;;5054570;28;20029;-69
2022/11/12 01:41:10;;;;;;;31.35;18.63;;;4.20;99.90;;;;;;5072590;28;20109;-69
2022/11/12 01:43:36;;;;;;;27.50;16.00;;;4.10;99.90;;;;;;5072707;28;20031;-68
2022/11/12 01:46:16;;;;;;;30.13;17.05;;;4.10;99.90;;;;;;5072272;28;21736;-68
2022/11/12 01:48:55;;;;;;;25.25;16.30;;;4.20;99.90;;;;;;5066395;28;20831;-69
2022/11/12 01:51:27;;;;;;;29.77;15.97;;;4.20;99.90;;;;;;5072520;28;20474;-69
2022/11/12 01:53:57;;;;;;;23.08;14.70;;;4.20;99.90;;;;;;5073680;28;20029;-69
2022/11/12 01:56:26;;;;;;;23.65;14.65;;;4.10;99.90;;;;;;5072470;28;20123;-70
2022/11/12 01:58:58;;;;;;;24.70;13.32;;;4.10;99.90;;;;;;5072396;28;20464;-69
2022/11/12 02:01:24;;;;;;;27.45;14.45;;;4.00;99.90;;;;;;5072744;28;20025;-71
2022/11/12 02:03:50;;;;;;;21.52;13.38;;;3.90;99.90;;;;;;5072780;28;20021;-70
2022/11/12 02:06:17;;;;;;;20.48;13.98;;;3.80;99.90;;;;;;5068479;28;20059;-69
2022/11/12 02:08:43;;;;;;;24.67;14.38;;;3.70;99.90;;;;;;5072279;28;20790;-69
2022/11/12 02:11:17;;;;;;;21.77;13.75;;;3.70;99.90;;;;;;5072189;28;20036;-68
2022/11/12 02:13:57;;;;;;;22.75;14.38;;;3.60;99.90;;;;;;5064938;28;20096;-69
2022/11/12 02:16:27;;;;;;;24.30;14.50;;;3.70;99.90;;;;;;5071836;28;20417;-71
2022/11/12 02:18:53;;;;;;;20.35;12.93;;;3.60;99.90;;;;;;5074742;28;20032;-69
2022/11/12 02:21:21;;;;;;;21.80;13.88;;;3.60;99.90;;;;;;5070881;28;20052;-69
2022/11/12 02:23:55;;;;;;;20.05;12.70;;;3.50;99.90;;;;;;5072125;28;20031;-69
2022/11/12 02:26:21;;;;;;;20.00;12.85;;;3.50;99.90;;;;;;5072043;28;20036;-69
2022/11/12 02:28:46;;;;;;;19.80;13.55;;;3.40;99.90;;;;;;5072004;28;20380;-69
2022/11/12 02:31:12;;;;;;;19.30;12.80;;;3.40;99.90;;;;;;5072242;28;20032;-69
2022/11/12 02:33:37;;;;;;;21.35;13.15;;;3.40;99.90;;;;;;5071237;28;20032;-69
2022/11/12 02:36:03;;;;;;;22.70;13.82;;;3.30;99.90;;;;;;5072215;28;20065;-69
2022/11/12 02:38:29;;;;;;;22.67;13.68;;;3.30;99.90;;;;;;5071530;28;20385;-69
2022/11/12 02:40:54;;;;;;;20.23;13.70;;;3.30;99.90;;;;;;5072009;28;20042;-69
2022/11/12 02:43:20;;;;;;;22.98;14.02;;;3.20;99.90;;;;;;5072225;28;20029;-69
2022/11/12 02:45:46;;;;;;;23.30;14.45;;;3.20;99.90;;;;;;5071316;28;20580;-69
2022/11/12 02:48:11;;;;;;;24.42;13.60;;;3.20;99.90;;;;;;5072553;28;20056;-69
2022/11/12 02:50:37;;;;;;;25.23;14.77;;;3.20;99.90;;;;;;5070554;28;20025;-69
2022/11/12 02:53:02;;;;;;;31.30;15.50;;;3.20;99.90;;;;;;5072400;28;20063;-69
2022/11/12 02:55:28;;;;;;;26.63;15.55;;;3.20;99.90;;;;;;5070871;28;20358;-69
2022/11/12 02:57:57;;;;;;;24.58;14.73;;;3.20;99.90;;;;;;5071695;28;20035;-69
2022/11/12 03:00:22;;;;;;;24.63;15.50;;;3.20;99.90;;;;;;5071703;28;20388;-71
2022/11/12 03:03:00;;;;;;;22.45;13.80;;;3.20;99.90;;;;;;5071409;28;20044;-69
2022/11/12 03:05:32;;;;;;;26.05;15.73;;;3.20;99.90;;;;;;5071572;28;20028;-70
2022/11/12 03:08:00;;;;;;;24.27;15.55;;;3.20;99.90;;;;;;5066450;28;20100;-68
2022/11/12 03:10:26;;;;;;;24.83;15.07;;;3.10;99.90;;;;;;5070948;28;20020;-69
2022/11/12 03:12:54;;;;;;;26.55;16.30;;;3.10;99.90;;;;;;5068165;28;20904;-68
2022/11/12 03:15:20;;;;;;;24.67;15.07;;;3.10;99.90;;;;;;5068512;28;20035;-68
2022/11/12 03:17:45;;;;;;;29.17;17.95;;;3.10;99.90;;;;;;5067681;28;20028;-67
2022/11/12 03:20:12;;;;;;;28.83;17.55;;;3.10;99.90;;;;;;5067192;28;20508;-70
2022/11/12 03:22:38;;;;;;;29.15;17.35;;;3.10;99.90;;;;;;5070741;28;20058;-69
2022/11/12 03:25:05;;;;;;;27.25;17.33;;;3.00;99.90;;;;;;5070890;28;20027;-69
2022/11/12 03:27:30;;;;;;;27.98;16.73;;;3.00;99.90;;;;;;5062746;28;20053;-69
2022/11/12 03:29:56;;;;;;;29.42;17.60;;;3.00;99.90;;;;;;5066552;28;20060;-69
2022/11/12 03:32:22;;;;;;;27.08;17.33;;;3.00;99.90;;;;;;5068852;28;20033;-69
2022/11/12 03:34:47;;;;;;;32.40;17.90;;;3.00;99.90;;;;;;5061954;28;20056;-69
2022/11/12 03:37:13;;;;;;;25.38;17.17;;;3.00;99.90;;;;;;5067950;28;20028;-69
2022/11/12 03:39:38;;;;;;;23.38;15.18;;;3.00;99.90;;;;;;5058882;28;20033;-69
2022/11/12 03:42:04;;;;;;;27.50;15.65;;;3.00;99.90;;;;;;5066835;28;20033;-69
2022/11/12 03:44:30;;;;;;;27.45;16.25;;;3.00;99.90;;;;;;5061111;28;20036;-69
2022/11/12 03:46:55;;;;;;;27.13;16.05;;;2.90;99.90;;;;;;5061134;28;20124;-68
2022/11/12 03:49:21;;;;;;;23.95;16.13;;;2.90;99.90;;;;;;5055579;28;20052;-68
2022/11/12 03:51:46;;;;;;;24.55;15.93;;;2.90;99.90;;;;;;5052432;28;20095;-69
2022/11/12 03:54:12;;;;;;;23.67;16.30;;;2.90;99.90;;;;;;5066669;28;20043;-69
2022/11/12 03:56:38;;;;;;;21.70;16.10;;;2.90;99.90;;;;;;5060953;28;20073;-69
2022/11/12 03:59:04;;;;;;;23.17;15.20;;;2.90;99.90;;;;;;5062501;28;20081;-69
2022/11/12 04:01:30;;;;;;;20.90;15.55;;;2.90;99.90;;;;;;5055210;28;20110;-70
2022/11/12 04:03:56;;;;;;;24.75;14.70;;;2.90;99.90;;;;;;5059462;28;20031;-70
2022/11/12 04:09:08;;;;;;;21.30;14.95;;;2.80;99.90;;;;;;5034852;28;20032;-69
2022/11/12 04:11:33;;;;;;;22.05;14.98;;;2.70;99.90;;;;;;5057323;28;20108;-70
2022/11/12 04:13:59;;;;;;;21.80;15.27;;;2.70;99.90;;;;;;5070262;28;20135;-69
2022/11/12 04:22:05;;;;;;;22.20;14.93;;;2.70;99.90;;;;;;5068058;28;20043;-69
2022/11/12 04:27:31;;;;;;;20.60;14.65;;;2.80;99.90;;;;;;5065884;28;20024;-71
2022/11/12 04:30:17;;;;;;;23.45;14.88;;;2.70;99.90;;;;;;5061668;28;20059;-68
2022/11/12 04:32:50;;;;;;;22.23;14.75;;;2.70;99.90;;;;;;5061189;28;20641;-68
2022/11/12 04:35:17;;;;;;;23.02;15.02;;;2.70;99.90;;;;;;5061537;28;20041;-68
2022/11/12 04:37:43;;;;;;;22.13;15.05;;;2.80;99.90;;;;;;5053308;28;20059;-68
2022/11/12 04:45:51;;;;;;;23.55;14.45;;;2.90;99.90;;;;;;5070020;28;20038;-68
2022/11/12 04:48:17;;;;;;;22.80;14.95;;;2.90;99.90;;;;;;5071157;28;20028;-69
2022/11/12 04:50:46;;;;;;;23.88;16.80;;;2.90;99.90;;;;;;5069762;28;20060;-69
2022/11/12 04:53:12;;;;;;;23.27;15.77;;;3.00;99.90;;;;;;5065678;28;20048;-69
2022/11/12 04:55:38;;;;;;;20.85;13.95;;;3.10;99.90;;;;;;5058365;28;20035;-69
2022/11/12 04:58:04;;;;;;;20.25;14.35;;;3.10;99.90;;;;;;5055391;28;20108;-68
2022/11/12 05:00:30;;;;;;;20.08;14.20;;;3.20;99.90;;;;;;5058762;28;20029;-69
2022/11/12 05:02:56;;;;;;;20.05;13.82;;;3.30;99.90;;;;;;5056492;28;20508;-69
2022/11/12 05:05:22;;;;;;;18.13;12.05;;;3.20;99.90;;;;;;5059805;28;20028;-69
2022/11/12 05:07:48;;;;;;;15.40;10.77;;;3.30;99.90;;;;;;5071037;28;20035;-69
2022/11/12 05:10:15;;;;;;;15.07;10.80;;;3.30;99.90;;;;;;5070018;28;20037;-69
2022/11/12 05:12:42;;;;;;;14.73;10.25;;;3.20;99.90;;;;;;5066206;28;20078;-69
2022/11/12 05:15:08;;;;;;;16.52;10.75;;;3.20;99.90;;;;;;5056171;28;20033;-69
2022/11/12 05:17:34;;;;;;;16.88;10.93;;;3.10;99.90;;;;;;5069528;28;20027;-69
2022/11/12 05:19:59;;;;;;;16.45;11.80;;;3.10;99.90;;;;;;5057977;28;20479;-68
2022/11/12 05:22:25;;;;;;;16.15;11.55;;;3.00;99.90;;;;;;5059248;28;20024;-71
2022/11/12 05:24:51;;;;;;;17.40;11.45;;;3.00;99.90;;;;;;5062516;28;20480;-69
2022/11/12 05:27:19;;;;;;;17.05;11.75;;;3.00;99.90;;;;;;5071099;28;20033;-69
2022/11/12 05:29:45;;;;;;;17.88;11.60;;;2.90;99.90;;;;;;5068857;28;20028;-70
2022/11/12 05:32:13;;;;;;;16.27;12.60;;;2.90;99.90;;;;;;5070671;28;20036;-69
2022/11/12 05:34:39;;;;;;;15.85;11.05;;;2.90;99.90;;;;;;5051712;28;20428;-69
2022/11/12 05:37:06;;;;;;;15.25;10.40;;;2.90;99.90;;;;;;5053006;28;20029;-69
2022/11/12 05:39:32;;;;;;;18.73;11.05;;;2.80;99.90;;;;;;5052212;28;20390;-69
2022/11/12 05:41:58;;;;;;;19.77;12.07;;;2.80;99.90;;;;;;5054252;28;20033;-69
2022/11/12 05:44:24;;;;;;;15.85;11.75;;;2.80;99.90;;;;;;5055893;28;20064;-71
2022/11/12 05:46:50;;;;;;;18.98;12.82;;;2.80;99.90;;;;;;5065155;28;20029;-69
2022/11/12 05:49:16;;;;;;;20.23;11.15;;;2.80;99.90;;;;;;5070092;28;20032;-69
2022/11/12 05:51:42;;;;;;;17.98;12.20;;;2.80;99.90;;;;;;5069155;28;20164;-69
2022/11/12 05:54:08;;;;;;;19.25;12.40;;;2.70;99.90;;;;;;5070233;28;20412;-69
2022/11/12 05:56:34;;;;;;;16.90;10.88;;;2.70;99.90;;;;;;5069326;28;20028;-69
2022/11/12 05:59:01;;;;;;;14.90;10.63;;;2.70;99.90;;;;;;5061485;28;20107;-69
2022/11/12 06:01:27;;;;;;;14.27;9.68;;;2.90;99.90;;;;;;5058791;28;20033;-69
2022/11/12 06:03:52;;;;;;;15.18;9.25;;;2.80;99.90;;;;;;5067966;28;20028;-69
2022/11/12 06:06:18;;;;;;;12.35;9.00;;;2.80;99.90;;;;;;5067076;28;20020;-69
2022/11/12 06:08:44;;;;;;;12.38;9.07;;;2.70;99.90;;;;;;5072642;28;20604;-69
2022/11/12 06:11:09;;;;;;;11.73;8.90;;;2.80;99.90;;;;;;5073222;28;20035;-69
2022/11/12 06:13:35;;;;;;;11.57;9.07;;;2.70;99.90;;;;;;5072731;28;20036;-69
2022/11/12 06:16:00;;;;;;;14.65;9.98;;;2.70;99.90;;;;;;5060764;28;20033;-68
2022/11/12 06:18:26;;;;;;;14.57;9.98;;;2.60;99.90;;;;;;5059291;28;20021;-70
2022/11/12 06:23:36;;;;;;;13.00;9.10;;;2.60;99.90;;;;;;5067855;28;20039;-68
2022/11/12 06:26:02;;;;;;;17.73;9.15;;;2.60;99.90;;;;;;5061754;28;20490;-68
2022/11/12 06:28:28;;;;;;;12.48;9.07;;;2.50;99.90;;;;;;5063780;28;20027;-68
2022/11/12 06:30:54;;;;;;;12.05;8.55;;;2.50;99.90;;;;;;5075375;28;20037;-67
2022/11/12 06:33:20;;;;;;;11.93;9.05;;;2.50;99.90;;;;;;5070100;28;20028;-68
2022/11/12 06:35:46;;;;;;;11.90;8.30;;;2.50;99.90;;;;;;5061093;28;20025;-68
2022/11/12 06:38:11;;;;;;;16.95;8.60;;;2.40;99.90;;;;;;5077992;28;20017;-68
2022/11/12 06:40:37;;;;;;;13.13;9.18;;;2.40;99.90;;;;;;5067264;28;20029;-70
2022/11/12 06:43:02;;;;;;;11.88;8.95;;;2.40;99.90;;;;;;5063051;28;20036;-69
2022/11/12 06:45:28;;;;;;;12.68;9.00;;;2.50;99.90;;;;;;5064984;28;20811;-68
2022/11/12 06:47:58;;;;;;;17.05;9.60;;;2.50;99.90;;;;;;5058417;28;20041;-68
2022/11/12 06:50:24;;;;;;;14.50;8.93;;;2.50;99.90;;;;;;5062096;28;20032;-72
2022/11/12 06:52:49;;;;;;;13.10;8.80;;;2.50;99.90;;;;;;5058435;28;20122;-69
2022/11/12 06:55:15;;;;;;;13.32;9.15;;;2.60;99.90;;;;;;5064866;28;20079;-68
2022/11/12 06:57:40;;;;;;;12.82;9.10;;;2.60;99.90;;;;;;5045533;28;20028;-69
2022/11/12 07:00:08;;;;;;;12.43;9.10;;;2.60;99.90;;;;;;5061762;28;20025;-69
2022/11/12 07:02:33;;;;;;;12.55;8.20;;;2.70;99.90;;;;;;5043196;28;20036;-69
2022/11/12 07:04:59;;;;;;;11.30;8.10;;;2.70;99.90;;;;;;5064864;28;20530;-70
2022/11/12 07:07:24;;;;;;;11.43;8.40;;;2.80;99.90;;;;;;5058140;28;20025;-71
2022/11/12 07:09:50;;;;;;;13.15;8.43;;;2.80;99.90;;;;;;5061652;28;20033;-69
2022/11/12 07:12:16;;;;;;;12.70;8.65;;;2.80;99.90;;;;;;5062236;28;20091;-69
2022/11/12 07:14:41;;;;;;;12.27;9.30;;;2.90;99.90;;;;;;5067430;28;20496;-73
2022/11/12 07:17:07;;;;;;;12.68;9.18;;;2.90;99.90;;;;;;5066924;28;20110;-71
2022/11/12 07:19:32;;;;;;;13.25;9.57;;;3.00;99.90;;;;;;5063582;28;20199;-72
2022/11/12 07:21:58;;;;;;;11.93;8.70;;;3.10;99.90;;;;;;5062367;28;20534;-70
2022/11/12 07:24:24;;;;;;;11.45;9.23;;;3.20;99.90;;;;;;5053597;28;20065;-72
2022/11/12 07:26:49;;;;;;;12.60;9.27;;;3.30;99.90;;;;;;5065838;28;20031;-69
2022/11/12 07:29:15;;;;;;;13.15;9.48;;;3.30;99.90;;;;;;5071326;28;20086;-70
2022/11/12 07:31:40;;;;;;;11.90;9.52;;;3.40;99.90;;;;;;5061107;28;20386;-70
2022/11/12 07:34:06;;;;;;;13.77;9.43;;;3.50;99.90;;;;;;5067075;28;20036;-70
2022/11/12 07:36:31;;;;;;;12.82;9.27;;;3.70;99.90;;;;;;5059192;28;20025;-71
2022/11/12 07:38:57;;;;;;;8.85;7.43;;;3.80;99.90;;;;;;5071889;28;20381;-72
2022/11/12 07:41:24;;;;;;;13.05;8.35;;;3.80;99.90;;;;;;5061244;28;20071;-74
2022/11/12 07:43:51;;;;;;;9.73;7.93;;;3.90;99.90;;;;;;5053384;28;20116;-70
2022/11/12 07:46:23;;;;;;;9.00;7.43;;;3.90;99.90;;;;;;5066553;28;20067;-71
2022/11/12 07:48:49;;;;;;;10.60;8.38;;;4.00;99.90;;;;;;5054401;28;20488;-70
2022/11/12 07:51:19;;;;;;;10.00;7.47;;;4.00;99.90;;;;;;5054342;28;20044;-70
2022/11/12 07:53:46;;;;;;;9.57;7.45;;;4.00;99.90;;;;;;5069770;28;20044;-70
2022/11/12 07:56:13;;;;;;;9.10;7.53;;;4.00;99.90;;;;;;5071180;28;20062;-70
2022/11/12 07:58:39;;;;;;;13.32;6.97;;;4.00;99.90;;;;;;5070249;28;20021;-72
2022/11/12 08:01:36;;;;;;;8.38;7.03;;;4.00;99.90;;;;;;5070961;28;20040;-72
2022/11/12 08:04:04;;;;;;;9.85;7.13;;;4.00;99.90;;;;;;5066234;28;20031;-73
2022/11/12 08:06:31;;;;;;;8.80;7.15;;;4.00;99.90;;;;;;5069999;28;20028;-70
2022/11/12 08:08:58;;;;;;;9.90;7.88;;;4.00;99.90;;;;;;5071437;28;20489;-71
2022/11/12 08:11:24;;;;;;;12.52;8.70;;;4.10;99.90;;;;;;5052364;28;20474;-75
2022/11/12 08:13:50;;;;;;;12.52;8.65;;;4.20;99.90;;;;;;5070278;28;20051;-72
2022/11/12 08:16:16;;;;;;;12.52;9.30;;;4.20;99.90;;;;;;5061912;28;20025;-74
2022/11/12 08:18:42;;;;;;;11.40;8.65;;;4.30;99.90;;;;;;5069338;28;20036;-76
2022/11/12 08:21:11;;;;;;;10.02;7.95;;;4.40;99.90;;;;;;5063522;28;20049;-73
2022/11/12 08:23:37;;;;;;;11.23;7.95;;;4.60;99.90;;;;;;5056843;28;20025;-71
2022/11/12 08:26:06;;;;;;;12.30;8.43;;;4.70;99.90;;;;;;5070677;28;20103;-74
2022/11/12 08:28:35;;;;;;;11.63;6.90;;;4.90;99.90;;;;;;5068919;28;20473;-74
2022/11/12 08:31:12;;;;;;;10.68;8.52;;;5.00;99.90;;;;;;5057416;28;20035;-75
2022/11/12 08:33:38;;;;;;;10.80;8.23;;;5.20;99.90;;;;;;5070802;28;20029;-73
2022/11/12 08:36:06;;;;;;;9.82;7.70;;;5.30;99.90;;;;;;5063221;28;20043;-73
2022/11/12 08:38:32;;;;;;;10.38;7.90;;;5.40;99.90;;;;;;5069522;28;20029;-70
2022/11/12 08:41:02;;;;;;;10.60;8.23;;;5.50;99.90;;;;;;5070735;28;20036;-68
2022/11/12 08:43:28;;;;;;;13.73;8.45;;;5.60;99.90;;;;;;5070315;28;20032;-72
2022/11/12 08:45:58;;;;;;;11.65;8.77;;;5.80;99.90;;;;;;5070531;28;20462;-74
2022/11/12 08:48:24;;;;;;;10.13;8.50;;;5.90;99.90;;;;;;5043217;28;20033;-74
2022/11/12 08:50:53;;;;;;;10.82;8.38;;;6.00;99.90;;;;;;5042909;28;20041;-74
2022/11/12 08:53:21;;;;;;;9.82;8.07;;;6.10;99.90;;;;;;5061015;28;20059;-73
2022/11/12 08:55:46;;;;;;;10.82;8.35;;;6.30;99.90;;;;;;5068853;28;20029;-71
2022/11/12 08:58:12;;;;;;;11.02;8.57;;;6.40;99.90;;;;;;5060655;28;20083;-74
2022/11/12 09:00:40;;;;;;;10.48;8.00;;;6.50;99.90;;;;;;5056452;28;20024;-73
2022/11/12 09:03:07;;;;;;;12.20;8.05;;;6.70;99.90;;;;;;5070758;28;20032;-76
2022/11/12 09:05:36;;;;;;;12.10;8.63;;;6.80;99.90;;;;;;5068382;28;20037;-74
2022/11/12 09:08:07;;;;;;;10.75;7.93;;;6.80;99.90;;;;;;5070909;28;20070;-74
2022/11/12 09:10:34;;;;;;;10.43;7.78;;;7.00;99.90;;;;;;5061247;28;20043;-74
2022/11/12 09:12:59;;;;;;;11.10;8.45;;;7.00;99.90;;;;;;5070796;28;20124;-73
2022/11/12 09:15:26;;;;;;;11.88;8.57;;;7.20;99.90;;;;;;5061400;28;20105;-75
2022/11/12 09:17:56;;;;;;;10.65;8.18;;;7.30;99.90;;;;;;5051816;28;20124;-75
2022/11/12 09:20:22;;;;;;;11.27;7.75;;;7.30;99.90;;;;;;5052687;28;20053;-71
2022/11/12 09:22:48;;;;;;;11.50;7.85;;;7.40;99.90;;;;;;5055803;28;20037;-80
2022/11/12 09:25:14;;;;;;;10.10;7.85;;;7.40;99.90;;;;;;5063313;28;20024;-81
2022/11/12 09:27:39;;;;;;;11.20;8.05;;;7.50;99.90;;;;;;5051568;28;20036;-75
2022/11/12 09:30:06;;;;;;;10.95;8.20;;;7.50;99.90;;;;;;5066860;28;20111;-75
2022/11/12 09:32:32;;;;;;;11.40;7.85;;;7.50;99.90;;;;;;5074146;28;20163;-76
2022/11/12 09:34:57;;;;;;;9.35;7.80;;;7.60;99.90;;;;;;5073495;28;20454;-75
2022/11/12 09:37:23;;;;;;;10.68;8.45;;;7.60;99.90;;;;;;5073265;28;20028;-75
2022/11/12 09:39:48;;;;;;;8.88;7.32;;;7.70;99.90;;;;;;5073443;28;20040;-75
2022/11/12 09:42:55;;;;;;;11.77;7.72;;;7.80;99.90;;;;;;5063258;28;20033;-75
2022/11/12 09:45:31;;;;;;;11.80;8.13;;;7.90;99.90;;;;;;5050878;28;20928;-76
2022/11/12 09:48:02;;;;;;;11.43;7.70;;;8.00;99.90;;;;;;5068378;28;20362;-75
2022/11/12 09:50:32;;;;;;;9.52;7.75;;;8.00;99.90;;;;;;5063069;28;20473;-75
2022/11/12 09:53:26;;;;;;;14.82;8.05;;;8.10;99.90;;;;;;5062539;28;20037;-75
2022/11/12 09:55:52;;;;;;;11.10;8.48;;;8.20;99.90;;;;;;5072955;28;20034;-73
2022/11/12 09:58:18;;;;;;;9.18;7.82;;;8.40;99.90;;;;;;5073316;28;20494;-75
2022/11/12 10:00:53;;;;;;;12.80;8.52;;;8.40;99.90;;;;;;5068548;28;20082;-76
2022/11/12 10:03:30;;;;;;;12.23;8.00;;;8.50;99.90;;;;;;5071048;28;20029;-75
2022/11/12 10:06:02;;;;;;;13.13;8.20;;;8.50;99.90;;;;;;5080794;28;20063;-75
2022/11/12 10:08:34;;;;;;;9.52;7.50;;;8.50;99.90;;;;;;5074859;28;20024;-78
2022/11/12 10:11:28;;;;;;;13.43;8.10;;;8.60;99.90;;;;;;5052660;28;20085;-69
2022/11/12 10:14:13;;;;;;;12.27;7.35;;;8.70;99.90;;;;;;5052858;28;20402;-71
2022/11/12 10:17:05;;;;;;;7.93;6.68;;;8.70;99.90;;;;;;5069724;28;20032;-72
2022/11/12 10:19:43;;;;;;;10.20;7.50;;;8.80;99.90;;;;;;5068082;28;20058;-71
2022/11/12 10:22:25;;;;;;;8.05;7.13;;;9.00;99.90;;;;;;5068637;28;20465;-70
2022/11/12 10:24:51;;;;;;;8.75;7.20;;;9.10;99.90;;;;;;5059816;28;20034;-70
2022/11/12 10:27:20;;;;;;;7.72;6.85;;;9.20;99.90;;;;;;5061797;28;20029;-71
2022/11/12 10:29:55;;;;;;;10.63;7.60;;;9.20;99.90;;;;;;5067861;28;20032;-71
2022/11/12 10:32:21;;;;;;;9.45;7.28;;;9.30;99.90;;;;;;5075795;28;20033;-70
2022/11/12 10:34:46;;;;;;;9.25;7.30;;;9.40;99.90;;;;;;5074720;28;20043;-71
2022/11/12 10:37:19;;;;;;;8.00;7.15;;;9.40;99.90;;;;;;5079319;28;20028;-71
2022/11/12 10:39:46;;;;;;;9.68;7.45;;;9.50;99.90;;;;;;5077623;28;20250;-71
2022/11/12 10:42:20;;;;;;;10.07;7.78;;;9.60;99.90;;;;;;5077185;28;20043;-71
2022/11/12 10:44:46;;;;;;;8.40;7.60;;;9.70;99.90;;;;;;5071335;28;20056;-71
2022/11/12 10:47:32;;;;;;;8.75;7.57;;;9.70;99.90;;;;;;5072520;28;20498;-71
2022/11/12 10:50:19;;;;;;;7.60;6.80;;;9.80;99.90;;;;;;5062213;28;20474;-72
2022/11/12 10:53:01;;;;;;;9.40;7.30;;;9.80;99.90;;;;;;5059436;28;20035;-71
2022/11/12 10:55:58;;;;;;;10.18;7.28;;;9.90;99.90;;;;;;5067696;28;20036;-72
2022/11/12 10:58:23;;;;;;;11.02;7.85;;;10.10;99.90;;;;;;5061509;28;20115;-74
2022/11/12 11:01:15;;;;;;;9.25;7.75;;;10.10;99.90;;;;;;5071140;28;20403;-69
2022/11/12 11:03:54;;;;;;;9.18;6.93;;;10.20;99.90;;;;;;5054029;28;20029;-73
2022/11/12 11:06:23;;;;;;;10.53;7.17;;;10.20;99.90;;;;;;5071347;28;20044;-74
2022/11/12 11:09:06;;;;;;;10.43;7.80;;;10.30;99.90;;;;;;5072125;28;20255;-71
2022/11/12 11:11:32;;;;;;;7.75;6.68;;;10.30;99.90;;;;;;5051907;28;20052;-73
2022/11/12 11:14:20;;;;;;;8.20;6.82;;;10.40;99.90;;;;;;5068316;28;20110;-72
2022/11/12 11:16:56;;;;;;;10.20;7.75;;;10.50;99.90;;;;;;5068067;28;20140;-70
2022/11/12 11:19:33;;;;;;;8.45;7.38;;;10.60;99.90;;;;;;5069086;28;20052;-76
2022/11/12 11:22:22;;;;;;;9.77;7.35;;;10.70;99.90;;;;;;5059989;28;20128;-72
2022/11/12 11:24:56;;;;;;;13.80;7.95;;;10.80;99.90;;;;;;5060917;28;20020;-70
2022/11/12 11:27:52;;;;;;;10.30;7.35;;;10.90;99.90;;;;;;5064446;28;20029;-72
2022/11/12 11:30:19;;;;;;;9.60;7.57;;;10.90;99.90;;;;;;5071001;28;20042;-71
2022/11/12 11:33:22;;;;;;;7.57;6.82;;;10.90;99.90;;;;;;5053420;28;20057;-70
2022/11/12 11:36:06;;;;;;;7.78;6.90;;;10.90;99.90;;;;;;5053144;28;20028;-73
2022/11/12 11:38:40;;;;;;;8.07;6.72;;;10.90;99.90;;;;;;5052763;28;20025;-72
2022/11/12 11:41:51;;;;;;;9.55;7.30;;;11.00;99.90;;;;;;5062860;28;20039;-76
2022/11/12 11:44:25;;;;;;;9.68;8.20;;;11.00;99.90;;;;;;5055948;28;20036;-69
2022/11/12 11:47:15;;;;;;;10.40;7.75;;;11.10;99.90;;;;;;5070027;28;20107;-73
2022/11/12 11:49:41;;;;;;;9.00;7.82;;;11.20;99.90;;;;;;5060558;28;20102;-69
2022/11/12 11:52:13;;;;;;;11.73;7.68;;;11.10;99.90;;;;;;5053762;28;20029;-70
2022/11/12 11:55:00;;;;;;;16.02;8.57;;;11.10;99.90;;;;;;5065723;28;20050;-70
2022/11/12 11:57:28;;;;;;;8.40;7.13;;;11.20;99.90;;;;;;5056582;28;20505;-72
2022/11/12 12:00:18;;;;;;;8.30;7.50;;;11.20;99.90;;;;;;5059038;28;20037;-69
2022/11/12 12:03:01;;;;;;;11.35;7.82;;;11.20;99.90;;;;;;5055178;28;20064;-69
2022/11/12 12:05:41;;;;;;;7.80;7.00;;;11.40;99.90;;;;;;5070315;28;20333;-73
2022/11/12 12:08:11;;;;;;;9.93;7.18;;;11.40;99.90;;;;;;5066812;28;20111;-69
2022/11/12 12:11:08;;;;;;;9.70;7.82;;;11.50;99.90;;;;;;5068773;28;20031;-70
2022/11/12 12:13:57;;;;;;;6.72;6.03;;;11.50;99.90;;;;;;5055563;28;20021;-70
2022/11/12 12:16:35;;;;;;;7.60;5.53;;;11.60;99.90;;;;;;5067186;28;20393;-70
2022/11/12 12:19:18;;;;;;;8.80;5.72;;;11.70;99.90;;;;;;5065322;28;20093;-71
2022/11/12 12:21:47;;;;;;;7.88;5.53;;;11.80;99.90;;;;;;5062467;28;20559;-70
2022/11/12 12:24:30;;;;;;;5.95;5.30;;;11.80;99.90;;;;;;5067521;28;20099;-70
2022/11/12 12:27:13;;;;;;;6.72;5.50;;;11.90;99.90;;;;;;5070814;28;20028;-70
2022/11/12 12:29:48;;;;;;;7.78;6.10;;;12.00;99.90;;;;;;5069829;28;20436;-69
2022/11/12 12:32:24;;;;;;;6.40;5.35;;;12.10;99.90;;;;;;5071004;28;20139;-70
2022/11/12 12:35:21;;;;;;;7.30;5.78;;;12.10;99.90;;;;;;5061672;28;20032;-69
2022/11/12 12:38:43;;;;;;;8.98;5.57;;;12.20;99.90;;;;;;5062288;28;20059;-69
2022/11/12 12:41:15;;;;;;;8.15;5.28;;;12.30;99.90;;;;;;4976298;28;20049;-68
2022/11/12 12:43:44;;;;;;;6.10;5.13;;;12.50;99.90;;;;;;5053233;28;20037;-69
2022/11/12 12:46:13;;;;;;;6.60;4.88;;;12.50;99.90;;;;;;5054884;28;20036;-69
2022/11/12 12:48:45;;;;;;;7.20;5.75;;;12.50;99.90;;;;;;5035488;28;20025;-68
2022/11/12 12:51:11;;;;;;;10.70;5.80;;;12.60;99.90;;;;;;5070184;28;20033;-69
2022/11/12 12:53:36;;;;;;;8.55;5.75;;;12.80;99.90;;;;;;5069465;28;20591;-68
2022/11/12 12:56:26;;;;;;;6.07;4.78;;;12.70;99.90;;;;;;5068804;28;20120;-68
2022/11/12 12:58:54;;;;;;;7.07;5.43;;;12.70;99.90;;;;;;5048320;28;20575;-68
2022/11/12 13:01:22;;;;;;;8.30;5.85;;;12.80;99.90;;;;;;5070179;28;20033;-69
2022/11/12 13:03:56;;;;;;;7.93;4.82;;;12.80;99.90;;;;;;5069601;28;20058;-72
2022/11/12 13:06:22;;;;;;;6.25;4.63;;;12.80;99.90;;;;;;5060435;28;20055;-75
2022/11/12 13:08:50;;;;;;;6.50;5.20;;;12.90;99.90;;;;;;5065032;28;20107;-74
2022/11/12 13:14:35;;;;;;;6.53;5.30;;;12.90;99.90;;;;;;5071305;28;20550;-76
2022/11/12 13:17:14;;;;;;;7.95;5.10;;;12.90;99.90;;;;;;5062561;28;20119;-76
2022/11/12 13:19:57;;;;;;;7.93;5.18;;;12.80;99.90;;;;;;5072205;28;20059;-76